Ana Sayfa
METAR-TAF:

METAR-TAF

Havaalanları :

Jimmy Lake, Saskatchewan, Kanada

Enlem: 54-55N, Boylam: 109-57W, yükseklik: 658 m

Güncel hava durumu gözlemi

Rapor saat 19:00 UTC de 12 dakika önce yapıldı.
Rüzgar kuzey/kuzeybatıdan 7 kt, kuzeybatı ve kuzey/kuzeydoğu arasında değişken
Sıcaklık -21°C
Nem 53%
Basınç 1021 hPa
Görüş mesafesi: 14.5 km
Açık gökyüzü

METAR: CWHN 091900Z AUTO 34007KT 310V020 9SM CLR M21/M28 A3016 RMK SLP273

Saat: 13:12 (19:12 UTC)


TAF: eksik

4.000'den fazla havaalanı için hava durumu gözlemleri ve tahminleri (METAR ve TAF raporları).

Kullanılabilir istasyonlar harita üzerinde sarı ve kırmızı noktalarla gösterilir.

İstasyonun adını görmek için fareyi noktanın üzerinde gezdirin.

Sonrasında hava gözlem ve tahminlerini görmek için tıklayın.

Haritayı değiştirmek için: yaklaştırmak için siyah artı işaretli yeşil düğmeye ve uzaklaştırmak için de eksi işaretli düğmeye hızla tıklayın; bitişik haritalar için yeşil okları kullanın.


METAR-TAF: